createdAt,value
2019-05-17T00:02:17.316Z,81.79
2019-05-17T00:04:47.068Z,80.98
2019-05-17T00:07:17.928Z,81.08
2019-05-17T00:09:48.223Z,81.10
2019-05-17T00:12:18.568Z,81.68
2019-05-17T00:14:49.001Z,81.44
2019-05-17T00:17:19.540Z,81.79
2019-05-17T00:19:50.018Z,81.63
2019-05-17T00:22:20.755Z,81.74
2019-05-17T00:24:52.525Z,80.54
2019-05-17T00:27:22.938Z,81.50
2019-05-17T00:29:53.428Z,82.28
2019-05-17T00:32:27.292Z,82.50
2019-05-17T00:34:57.152Z,82.63
2019-05-17T00:37:27.597Z,81.51
2019-05-17T00:39:59.030Z,81.99
2019-05-17T00:42:29.339Z,82.28
2019-05-17T00:44:59.692Z,80.48
2019-05-17T00:47:30.094Z,79.68
2019-05-17T00:50:00.432Z,82.09
2019-05-17T00:52:30.861Z,81.34
2019-05-17T00:55:01.593Z,80.91
2019-05-17T00:57:32.214Z,80.59
2019-05-17T01:00:02.682Z,80.45
2019-05-17T01:02:36.210Z,79.59
2019-05-17T01:05:06.814Z,79.64
2019-05-17T01:07:37.799Z,80.62
2019-05-17T01:10:09.845Z,81.13
2019-05-17T01:12:40.137Z,82.19
2019-05-17T01:15:11.488Z,82.98
2019-05-17T01:17:42.062Z,83.04
2019-05-17T01:20:12.833Z,83.75
2019-05-17T01:22:43.605Z,82.68
2019-05-17T01:25:17.141Z,83.15
2019-05-17T01:27:47.655Z,82.18
2019-05-17T01:30:18.377Z,82.94
2019-05-17T01:32:48.893Z,81.65
2019-05-17T01:35:19.243Z,80.61
2019-05-17T01:37:49.934Z,79.93
2019-05-17T01:40:20.273Z,79.69
2019-05-17T01:42:50.724Z,79.27
2019-05-17T01:45:22.034Z,79.74
2019-05-17T01:47:52.446Z,79.56
2019-05-17T01:50:23.136Z,82.70
2019-05-17T01:52:53.910Z,82.33
2019-05-17T01:55:26.418Z,82.28
2019-05-17T01:57:56.548Z,80.96
2019-05-17T02:00:27.508Z,79.26
2019-05-17T02:02:57.897Z,80.25
2019-05-17T02:05:28.165Z,79.72
2019-05-17T02:07:58.913Z,79.35
2019-05-17T02:10:29.258Z,80.54
2019-05-17T02:12:59.666Z,82.80
2019-05-17T02:15:30.013Z,80.37
2019-05-17T02:18:00.677Z,80.32
2019-05-17T02:20:31.343Z,79.88
2019-05-17T02:23:01.684Z,81.36
2019-05-17T02:25:32.100Z,81.54
2019-05-17T02:28:02.847Z,80.92
2019-05-17T02:30:33.917Z,79.30
2019-05-17T02:33:04.779Z,77.98
2019-05-17T02:35:35.583Z,80.51
2019-05-17T02:38:05.930Z,79.84
2019-05-17T02:40:36.334Z,81.60
2019-05-17T02:43:06.930Z,80.60
2019-05-17T02:45:37.270Z,82.50
2019-05-17T02:48:08.005Z,82.45
2019-05-17T02:50:38.356Z,82.25
2019-05-17T02:53:08.745Z,80.91
2019-05-17T02:55:39.478Z,80.40
2019-05-17T02:58:12.620Z,79.95
2019-05-17T03:00:44.317Z,79.81
2019-05-17T03:03:14.654Z,79.35
2019-05-17T03:05:45.427Z,78.82
2019-05-17T03:08:16.096Z,78.17
2019-05-17T03:10:46.518Z,78.10
2019-05-17T03:13:18.098Z,77.90
2019-05-17T03:15:48.684Z,77.79
2019-05-17T03:18:22.607Z,77.39
2019-05-17T03:20:52.528Z,77.10
2019-05-17T03:23:23.739Z,76.77
2019-05-17T03:25:54.382Z,76.68
2019-05-17T03:28:25.326Z,76.98
2019-05-17T03:30:57.174Z,77.72
2019-05-17T03:33:35.127Z,79.75
2019-05-17T03:36:06.109Z,79.12
2019-05-17T03:38:34.605Z,78.94
2019-05-17T03:41:17.666Z,78.92
2019-05-17T03:43:41.246Z,77.16
2019-05-17T03:46:13.860Z,76.64
2019-05-17T03:48:43.698Z,75.36
2019-05-17T03:51:14.618Z,75.03
2019-05-17T03:53:45.358Z,75.22
2019-05-17T03:56:15.729Z,75.31
2019-05-17T03:58:46.318Z,75.47
2019-05-17T04:01:16.954Z,76.21
2019-05-17T04:03:47.303Z,75.75
2019-05-17T04:06:17.681Z,76.17
2019-05-17T04:08:49.187Z,75.68
2019-05-17T04:11:27.811Z,76.38
2019-05-17T04:13:53.746Z,75.82
2019-05-17T04:16:24.191Z,75.39
2019-05-17T04:18:54.774Z,75.24
2019-05-17T04:21:25.453Z,74.52
2019-05-17T04:23:55.793Z,74.61
2019-05-17T04:26:26.439Z,74.03
2019-05-17T04:28:57.244Z,74.08
2019-05-17T04:31:30.838Z,74.51
2019-05-17T04:34:02.650Z,75.33
2019-05-17T04:36:32.381Z,74.27
2019-05-17T04:39:03.066Z,74.66
2019-05-17T04:41:45.023Z,75.13
2019-05-17T04:44:06.194Z,75.43
2019-05-17T04:46:36.769Z,74.60
2019-05-17T04:49:07.134Z,73.95
2019-05-17T04:51:37.952Z,73.65
2019-05-17T04:54:08.824Z,73.14
2019-05-17T04:56:42.447Z,72.52
2019-05-17T04:59:13.789Z,71.50
2019-05-17T05:01:43.942Z,72.11
2019-05-17T05:04:15.582Z,72.69
2019-05-17T05:06:46.104Z,73.20
2019-05-17T05:09:16.849Z,73.24
2019-05-17T05:11:59.623Z,73.79
2019-05-17T05:14:19.648Z,72.49
2019-05-17T05:16:52.808Z,73.25
2019-05-17T05:19:22.508Z,73.25
2019-05-17T05:21:52.780Z,73.47
2019-05-17T05:24:23.332Z,74.92
2019-05-17T05:26:53.723Z,73.21
2019-05-17T05:29:24.489Z,72.47
2019-05-17T05:31:54.817Z,72.21
2019-05-17T05:34:25.114Z,71.62
2019-05-17T05:36:55.795Z,73.41
2019-05-17T05:39:26.296Z,73.58
2019-05-17T05:42:06.837Z,73.86
2019-05-17T05:44:29.004Z,72.65
2019-05-17T05:47:01.992Z,73.43
2019-05-17T05:49:32.055Z,74.19
2019-05-17T05:52:03.210Z,74.98
2019-05-17T05:54:34.043Z,72.86
2019-05-17T05:57:04.361Z,71.51
2019-05-17T05:59:35.524Z,73.56
2019-05-17T06:02:05.823Z,72.69
2019-05-17T06:04:36.477Z,73.03
2019-05-17T06:07:07.014Z,72.08
2019-05-17T06:09:37.359Z,71.70
2019-05-17T06:12:22.700Z,71.44
2019-05-17T06:14:41.743Z,71.62
2019-05-17T06:17:12.588Z,73.55
2019-05-17T06:19:43.196Z,72.67
2019-05-17T06:22:14.015Z,73.24
2019-05-17T06:24:44.524Z,70.78
2019-05-17T06:27:14.929Z,70.21
2019-05-17T06:29:45.469Z,72.18
2019-05-17T06:32:16.106Z,70.92
2019-05-17T06:34:46.832Z,70.23
2019-05-17T06:37:17.162Z,71.20
2019-05-17T06:39:47.583Z,70.72
2019-05-17T06:42:18.308Z,69.23
2019-05-17T06:44:48.677Z,67.50
2019-05-17T06:47:19.118Z,68.70
2019-05-17T06:49:50.616Z,69.42
2019-05-17T06:52:22.569Z,69.80
2019-05-17T06:54:53.149Z,69.31
2019-05-17T06:57:23.666Z,69.30
2019-05-17T06:59:54.048Z,69.23
2019-05-17T07:02:26.401Z,67.57
2019-05-17T07:04:58.370Z,67.15
2019-05-17T07:07:30.378Z,66.42
2019-05-17T07:10:01.583Z,64.73
2019-05-17T07:12:31.912Z,64.65
2019-05-17T07:15:02.324Z,65.32
2019-05-17T07:17:33.063Z,66.02
2019-05-17T07:20:03.608Z,65.85
2019-05-17T07:22:34.054Z,65.01
2019-05-17T07:25:05.080Z,64.21
2019-05-17T07:27:41.323Z,65.21
2019-05-17T07:30:09.957Z,64.35
2019-05-17T07:32:41.035Z,62.95
2019-05-17T07:35:11.524Z,64.18
2019-05-17T07:37:42.336Z,64.64
2019-05-17T07:40:13.201Z,62.50
2019-05-17T07:42:43.550Z,61.96
2019-05-17T07:45:16.118Z,64.30
2019-05-17T07:47:46.928Z,63.01
2019-05-17T07:50:19.942Z,61.81
2019-05-17T07:52:50.256Z,60.25
2019-05-17T07:55:22.997Z,61.43
2019-05-17T07:57:53.748Z,60.35
2019-05-17T08:00:24.270Z,58.45
2019-05-17T08:02:55.079Z,58.34
2019-05-17T08:05:25.432Z,58.08
2019-05-17T08:07:56.113Z,54.96
2019-05-17T08:10:26.489Z,54.96
2019-05-17T08:12:57.174Z,54.27
2019-05-17T08:15:30.324Z,56.43
2019-05-17T08:18:01.888Z,56.42
2019-05-17T08:20:32.347Z,57.24
2019-05-17T08:23:05.165Z,58.15
2019-05-17T08:25:51.375Z,59.92
2019-05-17T08:28:10.992Z,59.92
2019-05-17T08:30:41.873Z,59.80
2019-05-17T08:33:12.256Z,57.76
2019-05-17T08:35:42.622Z,56.91
2019-05-17T08:38:13.378Z,56.30
2019-05-17T08:40:43.930Z,53.19
2019-05-17T08:43:14.668Z,53.19
2019-05-17T08:45:45.030Z,52.72
2019-05-17T08:48:15.513Z,52.07
2019-05-17T08:50:46.324Z,51.26
2019-05-17T08:53:16.717Z,53.70
2019-05-17T08:55:47.076Z,51.88
2019-05-17T08:58:21.289Z,51.14
2019-05-17T09:00:50.593Z,51.26
2019-05-17T09:03:21.085Z,52.85
2019-05-17T09:05:52.781Z,51.31
2019-05-17T09:08:23.493Z,50.73
2019-05-17T09:10:53.819Z,49.75
2019-05-17T09:13:24.381Z,50.83
2019-05-17T09:15:55.249Z,49.07
2019-05-17T09:18:25.606Z,49.91
2019-05-17T09:20:57.323Z,48.93
2019-05-17T09:23:30.209Z,48.70
2019-05-17T09:26:00.178Z,49.39
2019-05-17T09:28:30.550Z,48.94
2019-05-17T09:31:01.509Z,46.21
2019-05-17T09:33:31.899Z,45.47
2019-05-17T09:36:02.260Z,45.13
2019-05-17T09:38:32.987Z,45.77
2019-05-17T09:41:03.552Z,45.92
2019-05-17T09:43:34.350Z,43.98
2019-05-17T09:46:04.759Z,42.85
2019-05-17T09:48:35.187Z,42.59
2019-05-17T09:51:07.152Z,43.20
2019-05-17T09:53:39.925Z,44.11
2019-05-17T09:56:09.882Z,42.56
2019-05-17T09:58:40.643Z,42.28
2019-05-17T10:01:11.156Z,41.75
2019-05-17T10:03:41.699Z,41.61
2019-05-17T10:06:12.272Z,39.24
2019-05-17T10:08:43.186Z,40.14
2019-05-17T10:11:13.596Z,39.47
2019-05-17T10:13:44.346Z,37.81
2019-05-17T10:16:14.690Z,38.93
2019-05-17T10:18:45.427Z,38.46
2019-05-17T10:21:15.958Z,38.40
2019-05-17T10:23:46.265Z,39.48
2019-05-17T10:26:16.952Z,41.62
2019-05-17T10:28:47.432Z,41.11
2019-05-17T10:31:19.731Z,42.12
2019-05-17T10:33:50.247Z,43.07
2019-05-17T10:36:20.993Z,42.24
2019-05-17T10:38:51.386Z,42.37
2019-05-17T10:41:21.982Z,42.79
2019-05-17T10:43:52.621Z,42.24
2019-05-17T10:46:22.978Z,41.96
2019-05-17T10:48:53.712Z,41.66
2019-05-17T10:51:24.041Z,42.04
2019-05-17T10:53:54.798Z,39.91
2019-05-17T10:56:25.191Z,41.75
2019-05-17T10:58:55.522Z,42.02
2019-05-17T11:01:26.018Z,44.43
2019-05-17T11:03:56.802Z,43.36
2019-05-17T11:06:27.202Z,42.26
2019-05-17T11:08:59.486Z,45.08
2019-05-17T11:11:30.089Z,42.88
2019-05-17T11:14:00.521Z,43.42
2019-05-17T11:16:30.828Z,43.24
2019-05-17T11:19:01.534Z,42.88
2019-05-17T11:21:32.111Z,42.18
2019-05-17T11:24:02.459Z,43.13
2019-05-17T11:26:33.404Z,41.51
2019-05-17T11:29:04.236Z,40.69
2019-05-17T11:31:34.694Z,39.53
2019-05-17T11:34:05.359Z,40.21
2019-05-17T11:36:36.239Z,40.20
2019-05-17T11:39:07.633Z,40.22
2019-05-17T11:41:38.244Z,38.56
2019-05-17T11:44:09.027Z,36.99
2019-05-17T11:46:39.409Z,35.47
2019-05-17T11:49:09.770Z,35.55
2019-05-17T11:51:40.329Z,35.83
2019-05-17T11:54:10.750Z,35.61
2019-05-17T11:56:41.212Z,37.62
2019-05-17T11:59:11.704Z,36.75
2019-05-17T12:01:42.308Z,37.31
2019-05-17T12:04:13.070Z,37.00
2019-05-17T12:06:43.395Z,38.17
2019-05-17T12:09:13.814Z,40.43
2019-05-17T12:11:44.681Z,38.38
2019-05-17T12:14:15.002Z,37.54
2019-05-17T12:16:45.363Z,38.11
2019-05-17T12:19:16.051Z,37.49
2019-05-17T12:21:46.632Z,36.68
2019-05-17T12:24:17.265Z,36.91
2019-05-17T12:26:47.710Z,37.99
2019-05-17T12:29:18.165Z,38.31
2019-05-17T12:31:48.803Z,38.79
2019-05-17T12:34:19.289Z,40.08
2019-05-17T12:36:49.775Z,39.53
2019-05-17T12:39:20.547Z,40.22
2019-05-17T12:41:51.093Z,39.94
2019-05-17T12:44:21.600Z,41.08
2019-05-17T12:46:52.099Z,41.71
2019-05-17T12:49:22.892Z,41.96
2019-05-17T12:51:53.227Z,42.85
2019-05-17T12:54:23.982Z,43.84
2019-05-17T12:56:54.275Z,43.12
2019-05-17T12:59:25.012Z,43.59
2019-05-17T13:01:55.462Z,45.66
2019-05-17T13:04:25.834Z,49.58
2019-05-17T13:06:56.492Z,47.98
2019-05-17T13:09:27.314Z,48.50
2019-05-17T13:11:57.613Z,47.77
2019-05-17T13:14:28.304Z,44.58
2019-05-17T13:16:58.975Z,43.42
2019-05-17T13:19:29.276Z,42.67
2019-05-17T13:21:59.838Z,41.58
2019-05-17T13:24:30.291Z,39.93
2019-05-17T13:27:00.718Z,36.43
2019-05-17T13:29:31.239Z,36.31
2019-05-17T13:32:02.011Z,35.74
2019-05-17T13:34:32.457Z,34.26
2019-05-17T13:37:02.796Z,35.36
2019-05-17T13:39:33.457Z,33.42
2019-05-17T13:42:04.003Z,32.60
2019-05-17T13:44:34.406Z,32.77
2019-05-17T13:47:05.127Z,32.44
2019-05-17T13:49:35.847Z,33.39
2019-05-17T13:52:06.127Z,34.90
2019-05-17T13:54:36.576Z,33.53
2019-05-17T13:57:07.024Z,34.55
2019-05-17T13:59:37.436Z,36.80
2019-05-17T14:02:08.299Z,38.00
2019-05-17T14:04:38.746Z,38.96
2019-05-17T14:07:09.518Z,38.12
2019-05-17T14:09:40.166Z,38.36
2019-05-17T14:12:10.558Z,37.63
2019-05-17T14:14:41.301Z,38.77
2019-05-17T14:17:12.141Z,40.46
2019-05-17T14:19:42.490Z,41.95
2019-05-17T14:22:13.193Z,42.18
2019-05-17T14:24:43.698Z,42.35
2019-05-17T14:27:13.993Z,42.78
2019-05-17T14:29:44.492Z,45.27
2019-05-17T14:32:15.113Z,47.84
2019-05-17T14:34:45.893Z,50.02
2019-05-17T14:37:16.521Z,51.58
2019-05-17T14:39:46.871Z,50.75
2019-05-17T14:42:17.605Z,53.99
2019-05-17T14:44:48.465Z,55.32
2019-05-17T14:47:18.821Z,54.31
2019-05-17T14:49:51.197Z,54.53
2019-05-17T14:52:21.331Z,55.30
2019-05-17T14:54:51.687Z,57.38
2019-05-17T14:57:22.046Z,57.58
2019-05-17T14:59:52.907Z,58.60
2019-05-17T15:02:25.218Z,57.10
2019-05-17T15:04:55.923Z,58.75
2019-05-17T15:07:26.304Z,59.35
2019-05-17T15:09:57.887Z,59.06
2019-05-17T15:12:29.046Z,58.84
2019-05-17T15:14:59.590Z,58.84
2019-05-17T15:17:34.504Z,60.48
2019-05-17T15:20:02.659Z,61.20
2019-05-17T15:22:33.675Z,61.20
2019-05-17T15:25:05.623Z,61.20
2019-05-17T15:27:36.392Z,61.20
2019-05-17T15:30:07.440Z,61.37
2019-05-17T15:32:38.017Z,60.91
2019-05-17T15:35:08.845Z,61.54
2019-05-17T15:37:39.237Z,61.54
2019-05-17T15:40:10.410Z,62.49
2019-05-17T15:42:44.633Z,62.57
2019-05-17T15:45:13.546Z,63.20
2019-05-17T15:47:44.401Z,64.29
2019-05-17T15:50:15.496Z,64.66
2019-05-17T15:52:45.895Z,65.68
2019-05-17T15:55:17.649Z,66.30
2019-05-17T15:57:48.610Z,66.89
2019-05-17T16:00:19.452Z,67.77
2019-05-17T16:02:50.257Z,67.96
2019-05-17T16:05:20.773Z,68.83
2019-05-17T16:07:51.162Z,70.05
2019-05-17T16:10:22.135Z,69.19
2019-05-17T16:13:02.345Z,66.47
2019-05-17T16:15:24.923Z,66.73
2019-05-17T16:17:55.379Z,69.20
2019-05-17T16:20:25.739Z,69.20
2019-05-17T16:22:56.323Z,72.15
2019-05-17T16:25:27.104Z,73.35
2019-05-17T16:27:57.434Z,76.34
2019-05-17T16:30:27.929Z,77.15
2019-05-17T16:32:58.781Z,77.15
2019-05-17T16:35:29.139Z,79.03
2019-05-17T16:37:59.618Z,79.69
2019-05-17T16:40:30.297Z,77.99
2019-05-17T16:43:16.793Z,81.03
2019-05-17T16:45:33.573Z,83.20
2019-05-17T16:48:03.934Z,83.19
2019-05-17T16:50:34.259Z,82.55
2019-05-17T16:53:06.892Z,81.40
2019-05-17T16:55:37.197Z,81.81
2019-05-17T16:58:07.615Z,81.66
2019-05-17T17:00:40.392Z,78.78
2019-05-17T17:03:10.961Z,77.17
2019-05-17T17:05:41.921Z,73.48
2019-05-17T17:08:12.655Z,73.38
2019-05-17T17:10:43.068Z,77.32
2019-05-17T17:13:13.431Z,77.32
2019-05-17T17:15:43.802Z,74.52
2019-05-17T17:18:14.196Z,73.99
2019-05-17T17:20:45.205Z,75.05
2019-05-17T17:23:15.841Z,74.14
2019-05-17T17:25:46.198Z,74.14
2019-05-17T17:28:16.950Z,73.03
2019-05-17T17:30:47.622Z,73.17
2019-05-17T17:33:17.926Z,73.17
2019-05-17T17:35:48.696Z,72.29
2019-05-17T17:38:19.145Z,70.88
2019-05-17T17:40:49.496Z,71.51
2019-05-17T17:43:20.141Z,72.59
2019-05-17T17:45:51.073Z,72.74
2019-05-17T17:48:21.442Z,73.58
2019-05-17T17:50:51.824Z,73.69
2019-05-17T17:53:23.674Z,73.63
2019-05-17T17:55:54.087Z,74.09
2019-05-17T17:58:24.467Z,74.31
2019-05-17T18:00:55.071Z,73.63
2019-05-17T18:03:25.723Z,74.16
2019-05-17T18:05:56.128Z,75.50
2019-05-17T18:08:26.784Z,75.20
2019-05-17T18:10:57.461Z,75.33
2019-05-17T18:13:27.824Z,76.23
2019-05-17T18:15:58.536Z,75.90
2019-05-17T18:18:28.968Z,75.17
2019-05-17T18:20:59.789Z,75.41
2019-05-17T18:23:30.220Z,76.37
2019-05-17T18:26:01.350Z,76.56
2019-05-17T18:28:32.049Z,76.27
2019-05-17T18:31:02.724Z,75.41
2019-05-17T18:33:33.099Z,75.96
2019-05-17T18:36:03.925Z,76.86
2019-05-17T18:38:35.426Z,75.60
2019-05-17T18:41:06.176Z,75.19
2019-05-17T18:43:36.872Z,76.12
2019-05-17T18:46:07.749Z,75.99
2019-05-17T18:48:38.056Z,78.08
2019-05-17T18:51:08.454Z,78.03
2019-05-17T18:53:38.775Z,76.97
2019-05-17T18:56:09.563Z,77.36
2019-05-17T18:58:40.094Z,78.69
2019-05-17T19:01:11.670Z,80.36
2019-05-17T19:03:42.266Z,81.14
2019-05-17T19:06:14.014Z,81.73
2019-05-17T19:08:44.392Z,82.81
2019-05-17T19:11:14.935Z,82.81
2019-05-17T19:13:45.688Z,82.15
2019-05-17T19:16:16.000Z,81.80
2019-05-17T19:18:46.550Z,82.37
2019-05-17T19:21:17.022Z,82.65
2019-05-17T19:23:47.852Z,83.06
2019-05-17T19:26:18.710Z,84.81
2019-05-17T19:28:49.117Z,84.51
2019-05-17T19:31:19.692Z,84.34
2019-05-17T19:33:50.327Z,83.77
2019-05-17T19:36:20.754Z,84.28
2019-05-17T19:38:51.205Z,84.29
2019-05-17T19:41:22.017Z,83.52
2019-05-17T19:43:52.472Z,84.19
2019-05-17T19:46:22.779Z,83.04
2019-05-17T19:48:53.248Z,82.29
2019-05-17T19:51:23.711Z,82.27
2019-05-17T19:53:54.456Z,82.36
2019-05-17T19:56:24.790Z,84.52
2019-05-17T19:58:55.399Z,85.22
2019-05-17T20:01:26.427Z,84.83
2019-05-17T20:03:57.810Z,84.63
2019-05-17T20:06:28.220Z,84.11
2019-05-17T20:08:58.922Z,84.35
2019-05-17T20:11:34.343Z,84.19
2019-05-17T20:14:01.547Z,84.00
2019-05-17T20:16:32.532Z,84.39
2019-05-17T20:19:02.927Z,84.66
2019-05-17T20:21:33.280Z,85.20
2019-05-17T20:24:03.782Z,84.57
2019-05-17T20:26:34.299Z,85.22
2019-05-17T20:29:05.117Z,85.41
2019-05-17T20:31:35.701Z,85.00
2019-05-17T20:34:06.179Z,85.10
2019-05-17T20:36:37.027Z,88.45
2019-05-17T20:39:08.585Z,87.57
2019-05-17T20:41:39.061Z,86.44
2019-05-17T20:44:09.472Z,89.08
2019-05-17T20:46:39.927Z,90.48
2019-05-17T20:49:10.228Z,91.27
2019-05-17T20:51:40.773Z,92.50
2019-05-17T20:54:11.302Z,91.22
2019-05-17T20:56:41.645Z,90.25
2019-05-17T20:59:12.262Z,88.33
2019-05-17T21:01:42.578Z,87.62
2019-05-17T21:04:13.168Z,88.39
2019-05-17T21:06:43.947Z,91.79
2019-05-17T21:09:14.244Z,92.58
2019-05-17T21:11:44.780Z,92.32
2019-05-17T21:14:15.206Z,94.31
2019-05-17T21:16:45.505Z,93.85
2019-05-17T21:19:15.866Z,92.75
2019-05-17T21:21:46.549Z,92.09
2019-05-17T21:24:16.893Z,94.00
2019-05-17T21:26:47.191Z,94.51
2019-05-17T21:29:17.792Z,94.06
2019-05-17T21:31:48.323Z,94.01
2019-05-17T21:34:19.140Z,93.97
2019-05-17T21:36:49.449Z,94.39
2019-05-17T21:39:19.837Z,93.84
2019-05-17T21:41:50.512Z,93.77
2019-05-17T21:44:20.795Z,93.10
2019-05-17T21:47:03.709Z,92.46
2019-05-17T21:49:23.320Z,94.38
2019-05-17T21:51:53.805Z,94.60
2019-05-17T21:54:24.099Z,94.02
2019-05-17T21:56:54.844Z,93.43
2019-05-17T21:59:25.615Z,92.57
2019-05-17T22:01:56.230Z,91.80
2019-05-17T22:04:27.192Z,91.71
2019-05-17T22:06:57.794Z,91.48
2019-05-17T22:09:28.105Z,90.89
2019-05-17T22:12:01.557Z,90.39
2019-05-17T22:14:31.948Z,90.27
2019-05-17T22:17:02.257Z,90.56
2019-05-17T22:19:32.580Z,90.69
2019-05-17T22:22:03.367Z,91.80
2019-05-17T22:24:34.650Z,93.71
2019-05-17T22:27:05.002Z,94.82
2019-05-17T22:29:35.649Z,94.07
2019-05-17T22:32:06.352Z,95.44
2019-05-17T22:34:36.984Z,95.57
2019-05-17T22:37:07.310Z,95.93
2019-05-17T22:39:37.680Z,96.64
2019-05-17T22:42:08.609Z,98.21
2019-05-17T22:44:38.924Z,98.69
2019-05-17T22:47:09.286Z,98.37
2019-05-17T22:49:39.690Z,97.21
2019-05-17T22:52:10.260Z,95.88
2019-05-17T22:54:40.567Z,94.88
2019-05-17T22:57:11.410Z,93.81
2019-05-17T22:59:42.054Z,94.85
2019-05-17T23:02:12.501Z,95.43
2019-05-17T23:04:43.092Z,92.98
2019-05-17T23:07:13.453Z,90.54
2019-05-17T23:09:44.157Z,90.49
2019-05-17T23:12:14.630Z,93.16
2019-05-17T23:14:44.912Z,94.30
2019-05-17T23:17:15.709Z,93.71
2019-05-17T23:19:46.376Z,92.18
2019-05-17T23:22:16.704Z,91.18
2019-05-17T23:24:47.165Z,91.56
2019-05-17T23:27:17.758Z,91.78
2019-05-17T23:29:48.152Z,92.24
2019-05-17T23:32:18.633Z,92.15
2019-05-17T23:34:50.240Z,92.16
2019-05-17T23:37:20.578Z,92.71
2019-05-17T23:39:52.262Z,93.69
2019-05-17T23:42:22.570Z,93.73
2019-05-17T23:44:53.245Z,95.32
2019-05-17T23:47:23.680Z,94.47
2019-05-17T23:49:53.982Z,94.00
2019-05-17T23:52:24.497Z,93.33
2019-05-17T23:54:55.200Z,94.47
2019-05-17T23:57:25.573Z,93.82
2019-05-17T23:59:56.070Z,93.35
